createdAt,value
2019-05-21T00:00:11.264Z,951.44
2019-05-21T00:01:11.278Z,951.48
2019-05-21T00:02:11.213Z,951.42
2019-05-21T00:03:11.216Z,951.48
2019-05-21T00:04:11.198Z,951.44
2019-05-21T00:05:11.227Z,951.45
2019-05-21T00:06:11.183Z,951.46
2019-05-21T00:07:11.158Z,951.48
2019-05-21T00:08:11.148Z,951.45
2019-05-21T00:09:11.129Z,951.47
2019-05-21T00:10:11.174Z,951.50
2019-05-21T00:11:11.123Z,951.50
2019-05-21T00:12:11.132Z,951.45
2019-05-21T00:13:11.095Z,951.49
2019-05-21T00:14:11.151Z,951.53
2019-05-21T00:15:11.087Z,951.47
2019-05-21T00:16:11.090Z,951.54
2019-05-21T00:17:11.090Z,951.54
2019-05-21T00:18:11.105Z,951.51
2019-05-21T00:19:11.070Z,951.52
2019-05-21T00:20:11.020Z,951.58
2019-05-21T00:21:11.030Z,951.55
2019-05-21T00:22:10.997Z,951.53
2019-05-21T00:23:10.996Z,951.55
2019-05-21T00:24:10.967Z,951.49
2019-05-21T00:25:10.964Z,951.52
2019-05-21T00:26:11.005Z,951.52
2019-05-21T00:27:10.940Z,951.51
2019-05-21T00:28:10.929Z,951.55
2019-05-21T00:29:10.910Z,951.58
2019-05-21T00:30:10.901Z,951.60
2019-05-21T00:31:10.934Z,951.56
2019-05-21T00:32:10.916Z,951.63
2019-05-21T00:33:10.871Z,951.62
2019-05-21T00:34:10.874Z,951.61
2019-05-21T00:35:10.860Z,951.61
2019-05-21T00:36:10.836Z,951.65
2019-05-21T00:37:10.839Z,951.62
2019-05-21T00:38:10.797Z,951.62
2019-05-21T00:39:10.800Z,951.70
2019-05-21T00:40:10.803Z,951.68
2019-05-21T00:41:10.764Z,951.73
2019-05-21T00:42:10.808Z,951.66
2019-05-21T00:43:10.760Z,951.70
2019-05-21T00:44:10.769Z,951.71
2019-05-21T00:45:10.732Z,951.74
2019-05-21T00:46:10.770Z,951.74
2019-05-21T00:47:10.725Z,951.70
2019-05-21T00:48:10.705Z,951.71
2019-05-21T00:49:10.685Z,951.68
2019-05-21T00:50:10.664Z,951.69
2019-05-21T00:51:10.667Z,951.74
2019-05-21T00:52:10.660Z,951.72
2019-05-21T00:53:10.672Z,951.65
2019-05-21T00:54:10.620Z,951.74
2019-05-21T00:55:10.622Z,951.71
2019-05-21T00:56:10.653Z,951.70
2019-05-21T00:57:10.709Z,951.71
2019-05-21T00:58:10.614Z,951.70
2019-05-21T00:59:10.561Z,951.71
2019-05-21T01:00:10.918Z,951.70
2019-05-21T01:01:10.568Z,951.71
2019-05-21T01:02:10.536Z,951.73
2019-05-21T01:03:10.539Z,951.68
2019-05-21T01:04:10.547Z,951.74
2019-05-21T01:05:10.506Z,951.70
2019-05-21T01:06:10.491Z,951.75
2019-05-21T01:07:10.469Z,951.77
2019-05-21T01:08:10.469Z,951.78
2019-05-21T01:09:10.478Z,951.75
2019-05-21T01:10:10.444Z,951.75
2019-05-21T01:11:10.426Z,951.74
2019-05-21T01:12:10.429Z,951.76
2019-05-21T01:13:10.412Z,951.83
2019-05-21T01:14:10.445Z,951.79
2019-05-21T01:15:10.420Z,951.77
2019-05-21T01:16:10.370Z,951.75
2019-05-21T01:17:10.355Z,951.72
2019-05-21T01:18:10.362Z,951.77
2019-05-21T01:19:10.334Z,951.72
2019-05-21T01:20:10.348Z,951.78
2019-05-21T01:21:10.335Z,951.84
2019-05-21T01:22:10.306Z,951.86
2019-05-21T01:23:10.294Z,951.82
2019-05-21T01:24:10.271Z,951.92
2019-05-21T01:25:10.307Z,951.81
2019-05-21T01:26:10.281Z,951.82
2019-05-21T01:27:10.270Z,951.85
2019-05-21T01:28:10.255Z,951.86
2019-05-21T01:29:10.230Z,951.82
2019-05-21T01:30:10.251Z,951.89
2019-05-21T01:31:10.213Z,951.89
2019-05-21T01:32:10.205Z,951.94
2019-05-21T01:33:10.208Z,951.88
2019-05-21T01:34:11.556Z,951.91
2019-05-21T01:35:17.237Z,951.92
2019-05-21T01:36:10.152Z,951.89
2019-05-21T01:37:10.142Z,951.92
2019-05-21T01:38:10.131Z,951.96
2019-05-21T01:39:10.106Z,951.94
2019-05-21T01:40:10.158Z,951.96
2019-05-21T01:41:10.085Z,951.99
2019-05-21T01:42:10.087Z,951.99
2019-05-21T01:43:10.075Z,951.99
2019-05-21T01:44:10.084Z,952.00
2019-05-21T01:45:10.047Z,952.00
2019-05-21T01:46:10.097Z,951.98
2019-05-21T01:47:10.027Z,952.01
2019-05-21T01:48:10.019Z,951.95
2019-05-21T01:49:10.025Z,952.00
2019-05-21T01:50:10.004Z,951.98
2019-05-21T01:51:10.019Z,952.03
2019-05-21T01:52:09.971Z,951.97
2019-05-21T01:53:09.947Z,952.07
2019-05-21T01:54:09.956Z,952.09
2019-05-21T01:55:09.946Z,952.12
2019-05-21T01:56:09.977Z,952.13
2019-05-21T01:57:09.915Z,952.09
2019-05-21T01:58:09.920Z,952.12
2019-05-21T01:59:09.887Z,952.11
2019-05-21T02:00:09.884Z,952.09
2019-05-21T02:01:09.883Z,952.07
2019-05-21T02:02:09.893Z,952.08
2019-05-21T02:03:09.837Z,952.09
2019-05-21T02:04:09.847Z,952.13
2019-05-21T02:05:09.819Z,952.12
2019-05-21T02:06:09.826Z,952.11
2019-05-21T02:07:09.836Z,952.13
2019-05-21T02:08:09.795Z,952.16
2019-05-21T02:09:09.791Z,952.19
2019-05-21T02:10:09.779Z,952.15
2019-05-21T02:11:09.754Z,952.17
2019-05-21T02:12:10.882Z,952.23
2019-05-21T02:13:09.755Z,952.18
2019-05-21T02:14:09.715Z,952.23
2019-05-21T02:15:09.718Z,952.21
2019-05-21T02:16:09.689Z,952.22
2019-05-21T02:17:09.717Z,952.22
2019-05-21T02:18:09.694Z,952.24
2019-05-21T02:19:09.686Z,952.27
2019-05-21T02:20:09.655Z,952.29
2019-05-21T02:21:09.655Z,952.26
2019-05-21T02:22:09.630Z,952.20
2019-05-21T02:23:09.658Z,952.20
2019-05-21T02:24:09.638Z,952.22
2019-05-21T02:25:09.595Z,952.27
2019-05-21T02:26:09.591Z,952.31
2019-05-21T02:27:09.590Z,952.28
2019-05-21T02:28:09.605Z,952.30
2019-05-21T02:29:09.554Z,952.32
2019-05-21T02:30:09.975Z,952.30
2019-05-21T02:31:09.564Z,952.32
2019-05-21T02:32:09.513Z,952.33
2019-05-21T02:33:09.520Z,952.37
2019-05-21T02:34:09.540Z,952.32
2019-05-21T02:35:09.507Z,952.29
2019-05-21T02:36:09.492Z,952.38
2019-05-21T02:37:09.462Z,952.40
2019-05-21T02:38:09.499Z,952.33
2019-05-21T02:39:09.474Z,952.36
2019-05-21T02:40:09.432Z,952.35
2019-05-21T02:41:09.438Z,952.36
2019-05-21T02:42:09.397Z,952.37
2019-05-21T02:43:09.387Z,952.37
2019-05-21T02:44:09.482Z,952.36
2019-05-21T02:45:09.391Z,952.40
2019-05-21T02:46:09.370Z,952.42
2019-05-21T02:47:09.365Z,952.37
2019-05-21T02:48:09.339Z,952.40
2019-05-21T02:49:09.328Z,952.36
2019-05-21T02:50:09.372Z,952.37
2019-05-21T02:51:09.295Z,952.33
2019-05-21T02:52:09.318Z,952.41
2019-05-21T02:53:09.302Z,952.40
2019-05-21T02:54:09.268Z,952.42
2019-05-21T02:55:09.318Z,952.41
2019-05-21T02:56:09.254Z,952.42
2019-05-21T02:57:09.233Z,952.33
2019-05-21T02:58:09.236Z,952.46
2019-05-21T02:59:09.226Z,952.49
2019-05-21T03:00:09.209Z,952.45
2019-05-21T03:01:09.253Z,952.43
2019-05-21T03:02:09.171Z,952.45
2019-05-21T03:03:09.193Z,952.47
2019-05-21T03:04:09.174Z,952.46
2019-05-21T03:05:09.179Z,952.48
2019-05-21T03:06:14.765Z,952.53
2019-05-21T03:07:10.110Z,952.53
2019-05-21T03:08:09.116Z,952.54
2019-05-21T03:09:09.123Z,952.53
2019-05-21T03:10:09.149Z,952.53
2019-05-21T03:11:09.074Z,952.62
2019-05-21T03:12:09.064Z,952.60
2019-05-21T03:13:09.072Z,952.63
2019-05-21T03:14:09.036Z,952.59
2019-05-21T03:15:09.051Z,952.61
2019-05-21T03:16:09.063Z,952.63
2019-05-21T03:17:09.011Z,952.63
2019-05-21T03:18:08.989Z,952.61
2019-05-21T03:19:09.014Z,952.62
2019-05-21T03:20:08.968Z,952.66
2019-05-21T03:21:09.000Z,952.58
2019-05-21T03:22:08.971Z,952.64
2019-05-21T03:23:08.937Z,952.69
2019-05-21T03:24:09.018Z,952.75
2019-05-21T03:25:08.927Z,952.70
2019-05-21T03:26:08.947Z,952.66
2019-05-21T03:27:08.925Z,952.69
2019-05-21T03:28:08.884Z,952.67
2019-05-21T03:29:08.867Z,952.73
2019-05-21T03:30:08.874Z,952.71
2019-05-21T03:31:08.869Z,952.67
2019-05-21T03:32:08.935Z,952.71
2019-05-21T03:33:08.846Z,952.66
2019-05-21T03:34:08.812Z,952.69
2019-05-21T03:35:08.805Z,952.72
2019-05-21T03:36:08.800Z,952.78
2019-05-21T03:37:08.817Z,952.76
2019-05-21T03:38:08.781Z,952.77
2019-05-21T03:39:08.780Z,952.77
2019-05-21T03:40:08.757Z,952.73
2019-05-21T03:41:08.737Z,952.74
2019-05-21T03:42:08.795Z,952.71
2019-05-21T03:43:08.705Z,952.71
2019-05-21T03:44:08.716Z,952.74
2019-05-21T03:45:08.719Z,952.67
2019-05-21T03:46:08.676Z,952.65
2019-05-21T03:47:08.728Z,952.64
2019-05-21T03:48:08.677Z,952.72
2019-05-21T03:49:08.651Z,952.76
2019-05-21T03:50:08.653Z,952.78
2019-05-21T03:51:08.646Z,952.76
2019-05-21T03:52:08.671Z,952.79
2019-05-21T03:53:08.667Z,952.75
2019-05-21T03:54:08.616Z,952.83
2019-05-21T03:55:08.585Z,952.89
2019-05-21T03:56:08.594Z,952.87
2019-05-21T03:57:08.552Z,952.90
2019-05-21T03:58:08.596Z,952.88
2019-05-21T03:59:08.542Z,952.96
2019-05-21T04:00:08.523Z,952.97
2019-05-21T04:01:08.521Z,953.04
2019-05-21T04:02:08.539Z,952.98
2019-05-21T04:03:08.494Z,952.99
2019-05-21T04:04:08.467Z,953.06
2019-05-21T04:05:08.468Z,953.00
2019-05-21T04:06:08.453Z,953.07
2019-05-21T04:07:08.452Z,953.03
2019-05-21T04:08:08.419Z,953.12
2019-05-21T04:09:08.418Z,953.05
2019-05-21T04:10:08.389Z,953.08
2019-05-21T04:11:08.393Z,953.05
2019-05-21T04:12:08.384Z,953.13
2019-05-21T04:13:08.865Z,953.08
2019-05-21T04:14:08.352Z,953.06
2019-05-21T04:15:08.337Z,953.04
2019-05-21T04:16:08.346Z,953.08
2019-05-21T04:17:08.326Z,953.08
2019-05-21T04:18:08.313Z,953.13
2019-05-21T04:19:08.329Z,953.12
2019-05-21T04:20:08.275Z,953.11
2019-05-21T04:21:08.273Z,953.08
2019-05-21T04:22:08.298Z,953.09
2019-05-21T04:23:08.258Z,953.08
2019-05-21T04:24:09.318Z,953.07
2019-05-21T04:25:08.221Z,953.12
2019-05-21T04:26:08.210Z,953.11
2019-05-21T04:27:08.202Z,953.10
2019-05-21T04:28:08.208Z,953.09
2019-05-21T04:29:08.186Z,953.09
2019-05-21T04:30:11.238Z,953.08
2019-05-21T04:31:08.172Z,953.09
2019-05-21T04:32:08.145Z,953.11
2019-05-21T04:33:08.138Z,953.27
2019-05-21T04:34:08.129Z,953.17
2019-05-21T04:35:08.132Z,953.18
2019-05-21T04:36:08.200Z,953.20
2019-05-21T04:37:11.395Z,953.19
2019-05-21T04:38:08.075Z,953.27
2019-05-21T04:39:08.069Z,953.24
2019-05-21T04:40:08.078Z,953.27
2019-05-21T04:41:08.063Z,953.24
2019-05-21T04:42:08.048Z,953.28
2019-05-21T04:43:08.027Z,953.29
2019-05-21T04:44:08.011Z,953.38
2019-05-21T04:45:08.000Z,953.33
2019-05-21T04:46:08.021Z,953.36
2019-05-21T04:47:07.999Z,953.35
2019-05-21T04:48:07.969Z,953.38
2019-05-21T04:49:07.959Z,953.34
2019-05-21T04:50:07.943Z,953.36
2019-05-21T04:51:07.953Z,953.35
2019-05-21T04:52:07.926Z,953.36
2019-05-21T04:53:08.032Z,953.35
2019-05-21T04:54:07.895Z,953.38
2019-05-21T04:55:07.884Z,953.36
2019-05-21T04:56:07.895Z,953.35
2019-05-21T04:57:07.882Z,953.33
2019-05-21T04:58:07.867Z,953.34
2019-05-21T04:59:07.854Z,953.39
2019-05-21T05:00:07.830Z,953.38
2019-05-21T05:01:07.843Z,953.45
2019-05-21T05:02:07.810Z,953.40
2019-05-21T05:03:07.799Z,953.41
2019-05-21T05:04:07.805Z,953.43
2019-05-21T05:05:07.793Z,953.45
2019-05-21T05:06:07.759Z,953.57
2019-05-21T05:07:07.779Z,953.52
2019-05-21T05:08:07.750Z,953.56
2019-05-21T05:09:07.745Z,953.53
2019-05-21T05:10:07.728Z,953.57
2019-05-21T05:11:07.701Z,953.56
2019-05-21T05:12:07.704Z,953.59
2019-05-21T05:13:07.680Z,953.54
2019-05-21T05:14:07.675Z,953.53
2019-05-21T05:15:07.665Z,953.62
2019-05-21T05:16:07.670Z,953.66
2019-05-21T05:17:07.635Z,953.59
2019-05-21T05:18:07.631Z,953.64
2019-05-21T05:19:07.609Z,953.68
2019-05-21T05:20:07.617Z,953.76
2019-05-21T05:21:07.607Z,953.73
2019-05-21T05:22:07.596Z,953.69
2019-05-21T05:23:07.578Z,953.70
2019-05-21T05:24:07.554Z,953.72
2019-05-21T05:25:07.550Z,953.75
2019-05-21T05:26:07.543Z,953.73
2019-05-21T05:27:07.541Z,953.77
2019-05-21T05:28:07.546Z,953.75
2019-05-21T05:29:07.504Z,953.81
2019-05-21T05:30:07.484Z,953.74
2019-05-21T05:31:07.476Z,953.73
2019-05-21T05:32:07.485Z,953.74
2019-05-21T05:33:07.473Z,953.76
2019-05-21T05:34:07.473Z,953.79
2019-05-21T05:35:07.436Z,953.79
2019-05-21T05:36:07.424Z,953.77
2019-05-21T05:37:07.414Z,953.80
2019-05-21T05:38:07.426Z,953.80
2019-05-21T05:39:07.419Z,953.76
2019-05-21T05:40:07.411Z,953.78
2019-05-21T05:41:07.376Z,953.86
2019-05-21T05:42:07.355Z,953.86
2019-05-21T05:43:07.354Z,953.86
2019-05-21T05:44:07.351Z,953.88
2019-05-21T05:45:07.355Z,953.93
2019-05-21T05:46:07.346Z,953.90
2019-05-21T05:47:07.309Z,953.92
2019-05-21T05:48:07.284Z,953.92
2019-05-21T05:49:07.302Z,953.91
2019-05-21T05:50:07.287Z,953.97
2019-05-21T05:51:07.283Z,954.00
2019-05-21T05:52:07.245Z,953.97
2019-05-21T05:53:07.235Z,954.01
2019-05-21T05:54:07.877Z,954.00
2019-05-21T05:55:07.272Z,954.01
2019-05-21T05:56:07.217Z,954.04
2019-05-21T05:57:07.243Z,954.04
2019-05-21T05:58:07.218Z,954.12
2019-05-21T05:59:07.181Z,954.04
2019-05-21T06:00:07.197Z,954.07
2019-05-21T06:01:07.189Z,954.04
2019-05-21T06:02:07.151Z,954.07
2019-05-21T06:03:07.152Z,954.11
2019-05-21T06:04:07.124Z,954.13
2019-05-21T06:05:07.168Z,954.10
2019-05-21T06:06:07.086Z,954.09
2019-05-21T06:07:07.108Z,954.16
2019-05-21T06:08:07.103Z,954.16
2019-05-21T06:09:07.093Z,954.17
2019-05-21T06:10:07.044Z,954.16
2019-05-21T06:11:07.219Z,954.20
2019-05-21T06:12:07.019Z,954.10
2019-05-21T06:13:07.021Z,954.16
2019-05-21T06:14:07.014Z,954.18
2019-05-21T06:15:07.047Z,954.25
2019-05-21T06:16:06.993Z,954.20
2019-05-21T06:17:06.957Z,954.17
2019-05-21T06:18:06.957Z,954.26
2019-05-21T06:19:06.945Z,954.32
2019-05-21T06:20:06.954Z,954.30
2019-05-21T06:21:06.957Z,954.36
2019-05-21T06:22:06.901Z,954.29
2019-05-21T06:23:06.891Z,954.31
2019-05-21T06:24:06.891Z,954.42
2019-05-21T06:25:07.145Z,954.43
2019-05-21T06:26:06.894Z,954.38
2019-05-21T06:27:06.862Z,954.39
2019-05-21T06:28:06.834Z,954.41
2019-05-21T06:29:06.831Z,954.49
2019-05-21T06:30:06.830Z,954.40
2019-05-21T06:31:06.834Z,954.47
2019-05-21T06:32:06.834Z,954.52
2019-05-21T06:33:06.830Z,954.45
2019-05-21T06:34:06.790Z,954.50
2019-05-21T06:35:06.778Z,954.52
2019-05-21T06:36:06.772Z,954.55
2019-05-21T06:37:06.820Z,954.64
2019-05-21T06:38:17.095Z,954.60
2019-05-21T06:39:06.771Z,954.57
2019-05-21T06:40:06.724Z,954.57
2019-05-21T06:41:06.911Z,954.61
2019-05-21T06:42:06.726Z,954.62
2019-05-21T06:43:06.700Z,954.63
2019-05-21T06:44:06.713Z,954.63
2019-05-21T06:45:06.660Z,954.62
2019-05-21T06:46:06.643Z,954.66
2019-05-21T06:47:06.645Z,954.67
2019-05-21T06:48:06.654Z,954.65
2019-05-21T06:49:06.638Z,954.69
2019-05-21T06:50:06.643Z,954.73
2019-05-21T06:51:06.587Z,954.67
2019-05-21T06:52:06.582Z,954.74
2019-05-21T06:53:06.597Z,954.78
2019-05-21T06:54:06.559Z,954.79
2019-05-21T06:55:06.566Z,954.78
2019-05-21T06:56:07.494Z,954.76
2019-05-21T06:57:06.535Z,954.79
2019-05-21T06:58:06.580Z,954.86
2019-05-21T06:59:06.511Z,954.82
2019-05-21T07:00:06.500Z,954.80
2019-05-21T07:01:06.499Z,954.88
2019-05-21T07:02:06.460Z,954.86
2019-05-21T07:03:06.448Z,954.86
2019-05-21T07:04:06.451Z,954.84
2019-05-21T07:05:06.430Z,954.91
2019-05-21T07:06:06.434Z,954.97
2019-05-21T07:07:06.393Z,954.91
2019-05-21T07:08:06.431Z,954.99
2019-05-21T07:09:06.402Z,954.88
2019-05-21T07:10:07.088Z,954.90
2019-05-21T07:11:06.367Z,954.96
2019-05-21T07:12:06.421Z,954.93
2019-05-21T07:13:06.366Z,954.91
2019-05-21T07:14:06.378Z,954.91
2019-05-21T07:15:06.315Z,954.93
2019-05-21T07:16:06.323Z,954.93
2019-05-21T07:17:06.306Z,954.96
2019-05-21T07:18:06.304Z,954.95
2019-05-21T07:19:06.271Z,954.95
2019-05-21T07:20:06.240Z,955.02
2019-05-21T07:21:07.079Z,954.97
2019-05-21T07:22:12.770Z,955.00
2019-05-21T07:23:06.364Z,955.03
2019-05-21T07:24:06.199Z,955.04
2019-05-21T07:25:06.217Z,955.04
2019-05-21T07:26:06.195Z,955.14
2019-05-21T07:27:06.215Z,955.04
2019-05-21T07:28:06.164Z,955.05
2019-05-21T07:29:06.381Z,955.13
2019-05-21T07:30:06.166Z,955.08
2019-05-21T07:31:06.178Z,955.07
2019-05-21T07:32:06.196Z,955.04
2019-05-21T07:33:06.687Z,955.08
2019-05-21T07:34:07.048Z,955.19
2019-05-21T07:35:06.096Z,955.10
2019-05-21T07:36:06.095Z,955.16
2019-05-21T07:37:06.148Z,955.14
2019-05-21T07:38:06.043Z,955.19
2019-05-21T07:39:06.046Z,955.15
2019-05-21T07:40:06.047Z,955.20
2019-05-21T07:41:06.038Z,955.15
2019-05-21T07:42:06.034Z,955.22
2019-05-21T07:43:06.018Z,955.18
2019-05-21T07:44:05.995Z,955.24
2019-05-21T07:45:06.013Z,955.23
2019-05-21T07:46:05.975Z,955.24
2019-05-21T07:47:06.026Z,955.27
2019-05-21T07:48:05.969Z,955.29
2019-05-21T07:49:05.931Z,955.25
2019-05-21T07:50:05.929Z,955.28
2019-05-21T07:51:05.926Z,955.27
2019-05-21T07:52:05.910Z,955.32
2019-05-21T07:53:05.909Z,955.34
2019-05-21T07:54:05.861Z,955.31
2019-05-21T07:55:05.848Z,955.32
2019-05-21T07:56:05.841Z,955.24
2019-05-21T07:57:05.854Z,955.31
2019-05-21T07:58:05.845Z,955.38
2019-05-21T07:59:05.813Z,955.33
2019-05-21T08:00:05.787Z,955.36
2019-05-21T08:01:05.776Z,955.40
2019-05-21T08:02:05.783Z,955.35
2019-05-21T08:03:05.772Z,955.39
2019-05-21T08:04:05.740Z,955.44
2019-05-21T08:05:06.043Z,955.40
2019-05-21T08:06:05.723Z,955.45
2019-05-21T08:07:05.744Z,955.46
2019-05-21T08:08:05.729Z,955.46
2019-05-21T08:09:13.387Z,955.43
2019-05-21T08:10:06.674Z,955.50
2019-05-21T08:11:05.689Z,955.47
2019-05-21T08:12:27.494Z,955.50
2019-05-21T08:13:06.680Z,955.47
2019-05-21T08:14:05.661Z,955.47
2019-05-21T08:15:05.638Z,955.47
2019-05-21T08:16:05.612Z,955.53
2019-05-21T08:17:05.602Z,955.44
2019-05-21T08:18:05.582Z,955.48
2019-05-21T08:19:05.602Z,955.54
2019-05-21T08:20:09.731Z,955.54
2019-05-21T08:21:05.585Z,955.49
2019-05-21T08:22:05.550Z,955.54
2019-05-21T08:23:05.583Z,955.56
2019-05-21T08:24:05.537Z,955.56
2019-05-21T08:25:05.519Z,955.56
2019-05-21T08:26:05.509Z,955.59
2019-05-21T08:27:05.499Z,955.59
2019-05-21T08:28:05.479Z,955.55
2019-05-21T08:29:05.466Z,955.54
2019-05-21T08:30:05.447Z,955.55
2019-05-21T08:31:05.483Z,955.60
2019-05-21T08:32:05.445Z,955.67
2019-05-21T08:33:05.441Z,955.63
2019-05-21T08:34:05.440Z,955.63
2019-05-21T08:35:05.461Z,955.58
2019-05-21T08:36:05.871Z,955.63
2019-05-21T08:37:05.383Z,955.68
2019-05-21T08:38:06.800Z,955.68
2019-05-21T08:39:05.387Z,955.71
2019-05-21T08:40:05.376Z,955.71
2019-05-21T08:41:05.345Z,955.72
2019-05-21T08:42:05.327Z,955.76
2019-05-21T08:43:05.354Z,955.79
2019-05-21T08:44:05.319Z,955.79
2019-05-21T08:45:05.796Z,955.78
2019-05-21T08:46:05.286Z,955.74
2019-05-21T08:47:05.279Z,955.68
2019-05-21T08:48:05.365Z,955.79
2019-05-21T08:49:05.266Z,955.71
2019-05-21T08:50:05.257Z,955.81
2019-05-21T08:51:05.222Z,955.78
2019-05-21T08:52:05.237Z,955.86
2019-05-21T08:53:05.214Z,955.78
2019-05-21T08:54:05.224Z,955.76
2019-05-21T08:55:05.194Z,955.81
2019-05-21T08:56:05.152Z,955.85
2019-05-21T08:57:05.141Z,955.75
2019-05-21T08:58:07.441Z,955.76
2019-05-21T08:59:05.156Z,955.73
2019-05-21T09:00:05.123Z,955.88
2019-05-21T09:01:05.111Z,955.79
2019-05-21T09:02:05.088Z,955.82
2019-05-21T09:03:05.088Z,955.78
2019-05-21T09:04:05.077Z,955.79
2019-05-21T09:05:05.078Z,955.83
2019-05-21T09:06:05.085Z,955.84
2019-05-21T09:07:05.027Z,955.80
2019-05-21T09:08:05.032Z,955.84
2019-05-21T09:09:05.014Z,955.81
2019-05-21T09:10:04.995Z,955.83
2019-05-21T09:11:05.017Z,955.84
2019-05-21T09:12:04.990Z,955.86
2019-05-21T09:13:04.996Z,955.84
2019-05-21T09:14:05.000Z,955.85
2019-05-21T09:15:04.958Z,955.83
2019-05-21T09:16:05.001Z,955.88
2019-05-21T09:17:04.955Z,955.89
2019-05-21T09:18:04.949Z,955.86
2019-05-21T09:19:04.927Z,955.86
2019-05-21T09:20:04.910Z,955.86
2019-05-21T09:21:04.869Z,955.87
2019-05-21T09:22:04.863Z,956.04
2019-05-21T09:23:04.865Z,956.00
2019-05-21T09:24:04.861Z,955.96
2019-05-21T09:25:05.102Z,955.89
2019-05-21T09:26:04.810Z,955.96
2019-05-21T09:27:04.798Z,955.93
2019-05-21T09:28:04.822Z,956.01
2019-05-21T09:29:04.793Z,955.98
2019-05-21T09:30:04.828Z,955.93
2019-05-21T09:31:04.752Z,956.03
2019-05-21T09:32:04.742Z,956.03
2019-05-21T09:33:04.728Z,955.98
2019-05-21T09:34:04.736Z,956.05
2019-05-21T09:35:04.731Z,956.04
2019-05-21T09:36:04.760Z,956.00
2019-05-21T09:37:18.678Z,956.06
2019-05-21T09:38:04.689Z,956.05
2019-05-21T09:39:04.676Z,956.00
2019-05-21T09:40:04.698Z,956.06
2019-05-21T09:41:04.663Z,956.07
2019-05-21T09:42:04.766Z,955.98
2019-05-21T09:43:04.634Z,956.04
2019-05-21T09:44:04.620Z,956.10
2019-05-21T09:45:04.647Z,956.06
2019-05-21T09:46:04.588Z,956.05
2019-05-21T09:47:04.595Z,956.13
2019-05-21T09:48:04.663Z,956.08
2019-05-21T09:49:04.565Z,956.11
2019-05-21T09:50:04.701Z,956.12
2019-05-21T09:51:04.564Z,956.12
2019-05-21T09:52:04.528Z,956.06
2019-05-21T09:53:04.537Z,956.10
2019-05-21T09:54:04.503Z,956.07
2019-05-21T09:55:04.485Z,956.11
2019-05-21T09:56:04.543Z,956.12
2019-05-21T09:57:04.530Z,956.13
2019-05-21T09:58:04.479Z,956.13
2019-05-21T09:59:04.439Z,956.10
2019-05-21T10:00:04.437Z,956.09
2019-05-21T10:01:04.422Z,956.20
2019-05-21T10:02:04.417Z,956.14
2019-05-21T10:03:04.520Z,956.20
2019-05-21T10:04:04.394Z,956.20
2019-05-21T10:05:04.362Z,956.18
2019-05-21T10:06:04.370Z,956.19
2019-05-21T10:07:04.343Z,956.18
2019-05-21T10:08:04.346Z,956.18
2019-05-21T10:09:04.358Z,956.12
2019-05-21T10:10:04.342Z,956.18
2019-05-21T10:11:04.296Z,956.30
2019-05-21T10:12:04.297Z,956.23
2019-05-21T10:13:04.272Z,956.25
2019-05-21T10:14:04.277Z,956.21
2019-05-21T10:15:04.371Z,956.21
2019-05-21T10:16:04.271Z,956.21
2019-05-21T10:17:04.226Z,956.23
2019-05-21T10:18:04.214Z,956.25
2019-05-21T10:19:04.209Z,956.21
2019-05-21T10:20:04.215Z,956.24
2019-05-21T10:21:04.220Z,956.17
2019-05-21T10:22:04.281Z,956.27
2019-05-21T10:23:04.165Z,956.25
2019-05-21T10:24:04.154Z,956.29
2019-05-21T10:25:04.664Z,956.20
2019-05-21T10:26:04.140Z,956.26
2019-05-21T10:27:04.137Z,956.26
2019-05-21T10:28:04.112Z,956.28
2019-05-21T10:29:04.093Z,956.32
2019-05-21T10:30:04.078Z,956.30
2019-05-21T10:31:04.096Z,956.20
2019-05-21T10:32:04.071Z,956.27
2019-05-21T10:33:04.082Z,956.34
2019-05-21T10:34:04.042Z,956.33
2019-05-21T10:35:04.652Z,956.27
2019-05-21T10:36:04.026Z,956.33
2019-05-21T10:37:04.020Z,956.29
2019-05-21T10:38:04.009Z,956.39
2019-05-21T10:39:03.979Z,956.37
2019-05-21T10:40:03.965Z,956.36
2019-05-21T10:41:03.971Z,956.38
2019-05-21T10:42:03.941Z,956.44
2019-05-21T10:43:03.938Z,956.44
2019-05-21T10:44:03.930Z,956.48
2019-05-21T10:45:03.911Z,956.54
2019-05-21T10:46:03.893Z,956.50
2019-05-21T10:47:03.891Z,956.46
2019-05-21T10:48:03.882Z,956.59
2019-05-21T10:49:03.878Z,956.50
2019-05-21T10:50:03.877Z,956.45
2019-05-21T10:51:03.850Z,956.47
2019-05-21T10:52:03.846Z,956.52
2019-05-21T10:53:03.817Z,956.52
2019-05-21T10:54:03.814Z,956.47
2019-05-21T10:55:03.813Z,956.43
2019-05-21T10:56:03.780Z,956.53
2019-05-21T10:57:03.821Z,956.59
2019-05-21T10:58:03.766Z,956.50
2019-05-21T10:59:03.748Z,956.61
2019-05-21T11:00:03.756Z,956.58
2019-05-21T11:01:03.749Z,956.56
2019-05-21T11:02:03.747Z,956.60
2019-05-21T11:03:03.754Z,956.59
2019-05-21T11:04:03.705Z,956.70
2019-05-21T11:05:03.684Z,956.63
2019-05-21T11:06:10.260Z,956.68
2019-05-21T11:07:03.689Z,956.63
2019-05-21T11:08:22.795Z,956.65
2019-05-21T11:09:04.634Z,956.64
2019-05-21T11:10:03.671Z,956.68
2019-05-21T11:11:03.631Z,956.68
2019-05-21T11:12:03.652Z,956.66
2019-05-21T11:13:03.611Z,956.69
2019-05-21T11:14:03.579Z,956.62
2019-05-21T11:15:03.626Z,956.64
2019-05-21T11:16:03.570Z,956.71
2019-05-21T11:17:03.583Z,956.64
2019-05-21T11:18:11.902Z,956.65
2019-05-21T11:19:04.529Z,956.66
2019-05-21T11:20:03.511Z,956.66
2019-05-21T11:21:03.497Z,956.69
2019-05-21T11:22:03.492Z,956.66
2019-05-21T11:23:03.492Z,956.70
2019-05-21T11:24:03.527Z,956.73
2019-05-21T11:25:03.482Z,956.69
2019-05-21T11:26:03.663Z,956.71
2019-05-21T11:27:04.817Z,956.72
2019-05-21T11:28:06.025Z,956.65
2019-05-21T11:29:03.420Z,956.73
2019-05-21T11:30:03.422Z,956.69
2019-05-21T11:31:03.391Z,956.69
2019-05-21T11:32:03.374Z,956.65
2019-05-21T11:33:03.388Z,956.68
2019-05-21T11:34:03.356Z,956.67
2019-05-21T11:35:03.374Z,956.70
2019-05-21T11:36:03.349Z,956.77
2019-05-21T11:37:03.348Z,956.66
2019-05-21T11:38:03.310Z,956.67
2019-05-21T11:39:03.334Z,956.75
2019-05-21T11:40:03.298Z,956.77
2019-05-21T11:41:03.319Z,956.74
2019-05-21T11:42:03.285Z,956.74
2019-05-21T11:43:03.292Z,956.70
2019-05-21T11:44:03.243Z,956.77
2019-05-21T11:45:03.225Z,956.74
2019-05-21T11:46:03.390Z,956.74
2019-05-21T11:47:03.213Z,956.73
2019-05-21T11:48:03.211Z,956.76
2019-05-21T11:49:03.230Z,956.77
2019-05-21T11:50:03.174Z,956.75
2019-05-21T11:51:03.158Z,956.79
2019-05-21T11:52:03.151Z,956.84
2019-05-21T11:53:03.148Z,956.75
2019-05-21T11:54:03.127Z,956.83
2019-05-21T11:55:03.119Z,956.86
2019-05-21T11:56:03.105Z,956.80
2019-05-21T11:57:03.099Z,956.83
2019-05-21T11:58:03.090Z,956.86
2019-05-21T11:59:03.096Z,956.86
2019-05-21T12:00:03.074Z,956.84
2019-05-21T12:01:03.045Z,956.90
2019-05-21T12:02:03.031Z,956.85
2019-05-21T12:03:03.033Z,956.87
2019-05-21T12:04:03.022Z,956.94
2019-05-21T12:05:03.033Z,956.94
2019-05-21T12:06:03.014Z,956.97
2019-05-21T12:07:03.737Z,956.93
2019-05-21T12:08:02.978Z,956.84
2019-05-21T12:09:02.986Z,956.87
2019-05-21T12:10:02.956Z,956.94
2019-05-21T12:11:02.961Z,956.97
2019-05-21T12:12:02.937Z,956.95
2019-05-21T12:13:02.952Z,956.99
2019-05-21T12:14:02.897Z,956.99
2019-05-21T12:15:02.923Z,956.99
2019-05-21T12:16:02.900Z,957.01
2019-05-21T12:17:02.864Z,956.98
2019-05-21T12:18:02.859Z,957.04
2019-05-21T12:19:02.843Z,956.86
2019-05-21T12:20:02.847Z,957.03
2019-05-21T12:21:02.841Z,956.92
2019-05-21T12:22:02.831Z,956.91
2019-05-21T12:23:02.799Z,956.97
2019-05-21T12:24:02.781Z,956.92
2019-05-21T12:25:02.772Z,956.93
2019-05-21T12:26:02.783Z,956.91
2019-05-21T12:27:02.762Z,956.93
2019-05-21T12:28:02.776Z,956.97